createdAt,value
2022-10-26T00:01:20.676Z,6.05
2022-10-26T00:04:45.020Z,6.00
2022-10-26T00:08:07.320Z,6.32
2022-10-26T00:11:28.836Z,6.95
2022-10-26T00:14:50.480Z,6.00
2022-10-26T00:18:12.008Z,7.03
2022-10-26T00:21:33.570Z,6.22
2022-10-26T00:25:00.025Z,6.32
2022-10-26T00:28:24.701Z,6.18
2022-10-26T00:31:48.765Z,6.70
2022-10-26T00:35:23.006Z,5.70
2022-10-26T00:38:54.754Z,6.50
2022-10-26T00:42:21.769Z,6.15
2022-10-26T00:45:44.682Z,5.57
2022-10-26T00:49:14.150Z,5.90
2022-10-26T00:52:39.803Z,5.65
2022-10-26T00:56:04.148Z,6.40
2022-10-26T00:59:25.798Z,6.15
2022-10-26T01:02:51.135Z,6.15
2022-10-26T01:06:13.798Z,6.57
2022-10-26T01:09:36.111Z,46.65
2022-10-26T01:12:59.225Z,13.02
2022-10-26T01:16:42.049Z,7.10
2022-10-26T01:20:39.617Z,6.53
2022-10-26T01:24:10.296Z,6.40
2022-10-26T01:27:36.218Z,6.90
2022-10-26T01:31:01.663Z,6.70
2022-10-26T01:34:37.782Z,5.57
2022-10-26T01:38:19.242Z,25.00
2022-10-26T01:41:51.866Z,11.68
2022-10-26T01:45:15.791Z,5.85
2022-10-26T01:48:40.788Z,5.70
2022-10-26T01:52:02.497Z,6.88
2022-10-26T01:55:38.875Z,6.28
2022-10-26T01:59:31.281Z,6.00
2022-10-26T02:03:18.762Z,6.28
2022-10-26T02:07:07.010Z,6.28
2022-10-26T02:11:03.036Z,6.10
2022-10-26T02:14:38.522Z,6.35
2022-10-26T02:18:08.935Z,6.43
2022-10-26T02:21:40.263Z,6.55
2022-10-26T02:25:08.111Z,16.45
2022-10-26T02:28:34.894Z,14.75
2022-10-26T02:32:04.570Z,6.18
2022-10-26T02:35:30.936Z,6.55
2022-10-26T02:38:59.307Z,6.75
2022-10-26T02:42:22.522Z,6.45
2022-10-26T02:45:48.068Z,6.65
2022-10-26T02:49:10.233Z,6.20
2022-10-26T02:52:57.923Z,6.03
2022-10-26T02:56:29.620Z,6.10
2022-10-26T02:59:54.076Z,6.30
2022-10-26T03:03:18.826Z,6.88
2022-10-26T03:06:40.323Z,6.72
2022-10-26T03:10:01.930Z,6.90
2022-10-26T03:13:25.771Z,5.63
2022-10-26T03:23:40.228Z,7.35
2022-10-26T03:27:02.468Z,6.40
2022-10-26T03:30:24.419Z,6.65
2022-10-26T03:33:45.932Z,6.57
2022-10-26T03:37:07.594Z,6.90
2022-10-26T03:40:29.106Z,7.57
2022-10-26T03:43:50.670Z,6.55
2022-10-26T03:47:12.163Z,6.78
2022-10-26T03:50:33.690Z,6.13
2022-10-26T03:53:55.212Z,6.30
2022-10-26T03:57:17.078Z,6.93
2022-10-26T04:00:40.968Z,6.60
2022-10-26T04:04:07.408Z,6.78
2022-10-26T04:07:31.295Z,7.63
2022-10-26T04:10:52.839Z,6.97
2022-10-26T04:14:17.349Z,7.20
2022-10-26T04:17:38.893Z,7.60
2022-10-26T04:21:03.753Z,7.68
2022-10-26T04:24:27.840Z,8.18
2022-10-26T04:27:49.486Z,7.68
2022-10-26T04:31:11.249Z,7.70
2022-10-26T04:34:35.352Z,7.10
2022-10-26T04:38:01.312Z,6.90
2022-10-26T04:41:25.551Z,7.18
2022-10-26T04:44:49.333Z,7.57
2022-10-26T04:48:12.851Z,8.02
2022-10-26T04:51:34.452Z,7.72
2022-10-26T04:54:58.265Z,12.95
2022-10-26T04:58:19.796Z,14.02
2022-10-26T05:01:41.398Z,7.90
2022-10-26T05:08:27.647Z,8.77
2022-10-26T05:11:49.187Z,8.68
2022-10-26T05:15:15.120Z,9.00
2022-10-26T05:18:38.977Z,27.67
2022-10-26T05:22:00.505Z,10.55
2022-10-26T05:25:22.486Z,10.23
2022-10-26T05:28:43.984Z,8.75
2022-10-26T05:32:05.530Z,8.55
2022-10-26T05:35:27.886Z,8.18
2022-10-26T05:38:49.474Z,9.48
2022-10-26T05:42:10.962Z,10.63
2022-10-26T05:45:35.594Z,9.63
2022-10-26T05:48:57.096Z,9.68
2022-10-26T05:52:18.624Z,11.68
2022-10-26T05:55:42.923Z,11.98
2022-10-26T05:59:13.366Z,12.00
2022-10-26T06:02:48.303Z,13.55
2022-10-26T06:06:16.438Z,14.48
2022-10-26T06:09:41.237Z,12.30
2022-10-26T06:13:02.988Z,12.50
2022-10-26T06:16:34.903Z,12.35
2022-10-26T06:20:05.726Z,11.02
2022-10-26T06:23:45.343Z,11.50
2022-10-26T06:27:17.003Z,10.40
2022-10-26T06:30:41.764Z,10.88
2022-10-26T06:34:04.295Z,10.38
2022-10-26T06:37:26.516Z,11.70
2022-10-26T06:40:56.318Z,11.77
2022-10-26T06:44:27.005Z,12.27
2022-10-26T06:48:07.435Z,12.07
2022-10-26T06:51:30.916Z,11.32
2022-10-26T06:54:55.773Z,11.63
2022-10-26T06:58:23.455Z,11.80
2022-10-26T07:01:48.580Z,13.33
2022-10-26T07:05:13.200Z,16.40
2022-10-26T07:08:37.132Z,12.95
2022-10-26T07:12:03.500Z,11.77
2022-10-26T07:15:25.041Z,20.92
2022-10-26T07:18:46.695Z,19.65
2022-10-26T07:22:08.271Z,15.30
2022-10-26T07:25:29.817Z,12.05
2022-10-26T07:28:54.458Z,11.48
2022-10-26T07:32:18.221Z,12.57
2022-10-26T07:35:42.119Z,12.57
2022-10-26T07:39:04.512Z,15.65
2022-10-26T07:42:28.502Z,17.08
2022-10-26T07:45:51.415Z,11.30
2022-10-26T07:49:15.206Z,10.57
2022-10-26T07:52:42.069Z,10.27
2022-10-26T07:56:06.160Z,9.40
2022-10-26T07:59:29.976Z,9.35
2022-10-26T08:02:51.825Z,10.00
2022-10-26T08:06:14.047Z,9.90
2022-10-26T08:09:37.897Z,11.23
2022-10-26T08:12:59.434Z,9.70
2022-10-26T08:16:23.799Z,9.75
2022-10-26T08:19:49.774Z,17.25
2022-10-26T08:23:11.302Z,11.40
2022-10-26T08:26:35.146Z,10.05
2022-10-26T08:29:56.709Z,9.30
2022-10-26T08:33:18.228Z,9.20
2022-10-26T08:36:42.355Z,8.48
2022-10-26T08:40:05.122Z,8.80
2022-10-26T08:43:27.366Z,9.57
2022-10-26T08:46:59.246Z,7.57
2022-10-26T08:50:40.465Z,7.97
2022-10-26T08:54:26.787Z,7.35
2022-10-26T08:57:53.018Z,7.30
2022-10-26T09:01:14.763Z,7.32
2022-10-26T09:04:37.038Z,6.38
2022-10-26T09:08:21.019Z,8.95
2022-10-26T09:12:04.382Z,7.80
2022-10-26T09:15:37.815Z,10.07
2022-10-26T09:19:44.818Z,9.32
2022-10-26T09:23:35.547Z,8.73
2022-10-26T09:27:15.993Z,8.50
2022-10-26T09:30:37.860Z,10.70
2022-10-26T09:34:02.546Z,10.10
2022-10-26T09:37:32.178Z,9.88
2022-10-26T09:41:03.891Z,10.07
2022-10-26T09:44:29.258Z,10.15
2022-10-26T09:47:54.011Z,8.63
2022-10-26T09:51:17.031Z,9.07
2022-10-26T09:54:38.621Z,8.25
2022-10-26T09:58:11.965Z,8.60
2022-10-26T10:01:41.413Z,8.60
2022-10-26T10:05:49.691Z,8.05
2022-10-26T10:09:14.101Z,7.65
2022-10-26T10:12:40.364Z,7.13
2022-10-26T10:16:22.975Z,7.93
2022-10-26T10:19:47.479Z,8.60
2022-10-26T10:23:28.313Z,8.70
2022-10-26T10:27:04.534Z,8.77
2022-10-26T10:30:32.305Z,9.25
2022-10-26T10:33:54.360Z,10.52
2022-10-26T10:37:34.870Z,11.18
2022-10-26T10:41:03.386Z,20.33
2022-10-26T10:44:32.318Z,11.63
2022-10-26T10:48:12.344Z,12.13
2022-10-26T10:51:40.268Z,12.13
2022-10-26T10:55:07.824Z,11.93
2022-10-26T10:58:40.620Z,12.80
2022-10-26T11:02:27.004Z,12.88
2022-10-26T11:06:01.033Z,11.88
2022-10-26T11:09:27.826Z,11.65
2022-10-26T11:12:59.467Z,11.60
2022-10-26T11:16:32.280Z,11.48
2022-10-26T11:19:57.839Z,12.88
2022-10-26T11:23:47.169Z,11.57
2022-10-26T11:27:21.709Z,11.75
2022-10-26T11:30:49.629Z,13.30
2022-10-26T11:34:34.494Z,11.63
2022-10-26T11:38:09.970Z,15.18
2022-10-26T11:41:40.693Z,12.90
2022-10-26T11:45:08.067Z,11.85
2022-10-26T11:48:40.767Z,11.37
2022-10-26T11:52:04.971Z,10.25
2022-10-26T11:55:32.217Z,12.95
2022-10-26T11:58:54.526Z,10.53
2022-10-26T12:02:21.266Z,11.05
2022-10-26T12:05:42.783Z,9.88
2022-10-26T12:09:10.938Z,10.93
2022-10-26T12:16:13.385Z,11.07
2022-10-26T12:19:53.377Z,10.93
2022-10-26T12:23:28.102Z,10.98
2022-10-26T12:27:05.519Z,11.32
2022-10-26T12:30:34.880Z,11.90
2022-10-26T12:33:56.427Z,12.70
2022-10-26T12:37:23.884Z,12.15
2022-10-26T12:40:48.356Z,11.40
2022-10-26T12:44:34.662Z,11.82
2022-10-26T12:48:10.754Z,12.30
2022-10-26T12:51:43.248Z,12.40
2022-10-26T12:55:19.593Z,15.35
2022-10-26T12:59:04.533Z,14.82
2022-10-26T13:03:02.607Z,13.68
2022-10-26T13:06:40.313Z,11.82
2022-10-26T13:10:06.721Z,13.13
2022-10-26T13:13:33.123Z,14.85
2022-10-26T13:16:55.275Z,11.57
2022-10-26T13:20:17.703Z,10.95
2022-10-26T13:24:05.630Z,11.27
2022-10-26T13:27:33.000Z,11.27
2022-10-26T13:30:54.573Z,13.63
2022-10-26T13:34:20.938Z,11.23
2022-10-26T13:37:47.464Z,10.73
2022-10-26T13:41:20.167Z,10.80
2022-10-26T13:44:48.132Z,10.98
2022-10-26T13:48:18.494Z,9.90
2022-10-26T13:51:45.294Z,9.93
2022-10-26T13:55:30.207Z,11.13
2022-10-26T13:58:54.837Z,10.55
2022-10-26T14:02:19.672Z,10.48
2022-10-26T14:05:48.890Z,10.20
2022-10-26T14:09:15.914Z,9.63
2022-10-26T14:12:40.801Z,10.13
2022-10-26T14:16:14.226Z,10.23
2022-10-26T14:19:43.639Z,10.45
2022-10-26T14:23:25.639Z,10.02
2022-10-26T14:26:47.223Z,10.02
2022-10-26T14:30:25.337Z,12.73
2022-10-26T14:33:47.028Z,11.68
2022-10-26T14:37:15.344Z,11.60
2022-10-26T14:40:36.938Z,12.63
2022-10-26T14:44:01.121Z,20.08
2022-10-26T14:47:47.140Z,12.63
2022-10-26T14:51:21.381Z,11.48
2022-10-26T14:54:59.277Z,10.52
2022-10-26T15:01:54.311Z,13.68
2022-10-26T15:05:19.178Z,13.15
2022-10-26T15:08:52.435Z,12.82
2022-10-26T15:12:19.718Z,11.75
2022-10-26T15:15:42.744Z,14.80
2022-10-26T15:19:22.780Z,11.50
2022-10-26T15:22:51.064Z,10.75
2022-10-26T15:26:12.780Z,10.38
2022-10-26T15:29:41.093Z,10.75
2022-10-26T15:33:20.347Z,9.98
2022-10-26T15:36:42.825Z,11.13
2022-10-26T15:40:07.726Z,11.13
2022-10-26T15:43:29.353Z,11.27
2022-10-26T15:46:51.030Z,10.60
2022-10-26T15:50:17.747Z,10.93
2022-10-26T15:53:41.907Z,10.13
2022-10-26T15:57:03.756Z,11.55
2022-10-26T16:00:27.481Z,11.65
2022-10-26T16:03:49.850Z,12.30
2022-10-26T16:07:16.227Z,11.90
2022-10-26T16:10:42.524Z,25.80
2022-10-26T16:14:04.241Z,16.00
2022-10-26T16:17:25.762Z,11.80
2022-10-26T16:20:51.909Z,12.52
2022-10-26T16:24:15.781Z,12.23
2022-10-26T16:27:37.355Z,15.00
2022-10-26T16:31:03.893Z,15.23
2022-10-26T16:34:27.736Z,12.48
2022-10-26T16:37:49.381Z,11.88
2022-10-26T16:41:13.820Z,14.75
2022-10-26T16:44:36.458Z,12.88
2022-10-26T16:47:58.112Z,13.80
2022-10-26T16:51:28.169Z,14.35
2022-10-26T16:54:49.862Z,14.75
2022-10-26T16:58:13.494Z,15.48
2022-10-26T17:01:37.672Z,15.48
2022-10-26T17:05:01.410Z,15.95
2022-10-26T17:08:31.476Z,31.45
2022-10-26T17:11:58.293Z,16.50
2022-10-26T17:15:27.844Z,15.38
2022-10-26T17:18:51.040Z,15.30
2022-10-26T17:22:14.951Z,15.13
2022-10-26T17:25:39.142Z,14.63
2022-10-26T17:29:00.730Z,14.52
2022-10-26T17:32:22.858Z,15.55
2022-10-26T17:35:44.360Z,14.68
2022-10-26T17:39:08.168Z,14.05
2022-10-26T17:42:29.687Z,15.70
2022-10-26T17:49:17.614Z,14.45
2022-10-26T17:52:41.432Z,13.90
2022-10-26T17:56:05.059Z,16.27
2022-10-26T17:59:26.675Z,17.88
2022-10-26T18:02:50.854Z,17.58
2022-10-26T18:06:12.709Z,17.75
2022-10-26T18:09:36.795Z,22.13
2022-10-26T18:12:58.323Z,18.20
2022-10-26T18:16:23.586Z,17.42
2022-10-26T18:19:45.093Z,14.98
2022-10-26T18:23:06.736Z,15.60
2022-10-26T18:26:29.220Z,15.18
2022-10-26T18:29:50.777Z,15.82
2022-10-26T18:33:12.269Z,15.38
2022-10-26T18:36:33.908Z,16.58
2022-10-26T18:39:57.655Z,16.25
2022-10-26T18:43:19.635Z,16.05
2022-10-26T18:46:42.601Z,16.85
2022-10-26T18:50:07.307Z,16.10
2022-10-26T18:53:28.844Z,16.65
2022-10-26T18:56:50.558Z,18.08
2022-10-26T19:00:12.788Z,22.00
2022-10-26T19:03:35.140Z,20.15
2022-10-26T19:06:56.739Z,18.80
2022-10-26T19:10:18.523Z,17.27
2022-10-26T19:13:40.927Z,16.98
2022-10-26T19:17:05.507Z,16.02
2022-10-26T19:20:29.284Z,16.27
2022-10-26T19:23:58.616Z,17.48
2022-10-26T19:27:20.118Z,16.65
2022-10-26T19:30:46.138Z,17.60
2022-10-26T19:34:07.674Z,19.55
2022-10-26T19:37:30.053Z,19.17
2022-10-26T19:41:05.791Z,18.35
2022-10-26T19:44:27.294Z,18.88
2022-10-26T19:47:49.057Z,18.23
2022-10-26T19:51:13.118Z,18.63
2022-10-26T19:54:37.092Z,18.05
2022-10-26T19:57:58.706Z,18.98
2022-10-26T20:01:23.209Z,19.25
2022-10-26T20:04:45.354Z,19.05
2022-10-26T20:08:12.108Z,18.40
2022-10-26T20:11:36.720Z,18.13
2022-10-26T20:14:58.252Z,17.95
2022-10-26T20:18:25.265Z,16.95
2022-10-26T20:21:49.100Z,17.92
2022-10-26T20:25:12.972Z,17.85
2022-10-26T20:28:34.644Z,19.20
2022-10-26T20:31:59.751Z,18.48
2022-10-26T20:35:21.243Z,17.13
2022-10-26T20:38:43.022Z,17.75
2022-10-26T20:42:07.745Z,18.40
2022-10-26T20:45:29.482Z,19.08
2022-10-26T20:48:54.523Z,17.65
2022-10-26T20:52:22.081Z,16.67
2022-10-26T20:55:53.934Z,32.97
2022-10-26T20:59:31.908Z,49.88
2022-10-26T21:02:53.434Z,15.47
2022-10-26T21:06:15.044Z,15.77
2022-10-26T21:09:41.548Z,14.18
2022-10-26T21:13:03.208Z,15.70
2022-10-26T21:16:24.802Z,16.27
2022-10-26T21:19:46.362Z,15.65
2022-10-26T21:23:10.208Z,15.38
2022-10-26T21:26:34.801Z,14.23
2022-10-26T21:29:56.429Z,13.25
2022-10-26T21:33:20.096Z,13.32
2022-10-26T21:36:46.584Z,13.38
2022-10-26T21:40:08.991Z,12.30
2022-10-26T21:43:33.238Z,12.73
2022-10-26T21:46:57.300Z,11.90
2022-10-26T21:50:19.549Z,13.48
2022-10-26T21:53:41.199Z,13.00
2022-10-26T21:57:03.316Z,13.32
2022-10-26T22:00:24.949Z,12.57
2022-10-26T22:03:49.375Z,13.05
2022-10-26T22:07:11.014Z,13.43
2022-10-26T22:10:32.584Z,12.73
2022-10-26T22:13:54.694Z,13.32
2022-10-26T22:17:16.212Z,13.85
2022-10-26T22:20:37.753Z,13.80
2022-10-26T22:23:59.267Z,14.10
2022-10-26T22:27:23.375Z,13.90
2022-10-26T22:30:44.867Z,14.18
2022-10-26T22:34:08.753Z,13.63
2022-10-26T22:37:35.152Z,14.32
2022-10-26T22:40:56.729Z,14.00
2022-10-26T22:44:18.199Z,14.27
2022-10-26T22:47:39.720Z,14.85
2022-10-26T22:51:18.599Z,14.02
2022-10-26T22:58:03.668Z,13.57
2022-10-26T23:01:33.381Z,15.25
2022-10-26T23:04:57.193Z,14.73
2022-10-26T23:08:21.222Z,13.60
2022-10-26T23:11:45.415Z,14.10
2022-10-26T23:15:07.504Z,14.38
2022-10-26T23:18:29.034Z,14.45
2022-10-26T23:21:55.783Z,13.50
2022-10-26T23:25:17.323Z,13.73
2022-10-26T23:28:47.195Z,14.65
2022-10-26T23:32:08.710Z,13.80
2022-10-26T23:35:32.962Z,14.05
2022-10-26T23:38:54.502Z,12.95
2022-10-26T23:42:16.054Z,13.40
2022-10-26T23:45:37.527Z,13.77
2022-10-26T23:48:59.154Z,13.15
2022-10-26T23:52:20.698Z,13.52
2022-10-26T23:55:45.462Z,12.93
2022-10-26T23:59:09.368Z,12.98
